sensor_id;sensor_type;location;lat;lon;timestamp;pressure;altitude;pressure_sealevel;temperature;humidity
15568;BME280;7885;42.596;23.044;2023-04-20T00:02:00;92610.28;;;11.48;80.10
15568;BME280;7885;42.596;23.044;2023-04-20T00:04:28;92607.56;;;11.48;80.13
15568;BME280;7885;42.596;23.044;2023-04-20T00:06:55;92597.88;;;11.43;79.13
15568;BME280;7885;42.596;23.044;2023-04-20T00:09:23;92609.50;;;11.47;78.05
15568;BME280;7885;42.596;23.044;2023-04-20T00:11:49;92616.47;;;11.48;78.39
15568;BME280;7885;42.596;23.044;2023-04-20T00:14:18;92609.91;;;11.46;78.45
15568;BME280;7885;42.596;23.044;2023-04-20T00:16:45;92606.34;;;11.49;78.25
15568;BME280;7885;42.596;23.044;2023-04-20T00:19:11;92592.38;;;11.47;77.90
15568;BME280;7885;42.596;23.044;2023-04-20T00:21:38;92587.75;;;11.44;78.93
15568;BME280;7885;42.596;23.044;2023-04-20T00:24:05;92595.16;;;11.43;79.23
15568;BME280;7885;42.596;23.044;2023-04-20T00:26:32;92594.00;;;11.41;79.40
15568;BME280;7885;42.596;23.044;2023-04-20T00:28:59;92594.81;;;11.38;79.17
15568;BME280;7885;42.596;23.044;2023-04-20T00:31:27;92594.06;;;11.37;79.51
15568;BME280;7885;42.596;23.044;2023-04-20T00:33:54;92590.50;;;11.40;77.37
15568;BME280;7885;42.596;23.044;2023-04-20T00:36:21;92590.09;;;11.42;76.76
15568;BME280;7885;42.596;23.044;2023-04-20T00:38:47;92576.97;;;11.33;77.06
15568;BME280;7885;42.596;23.044;2023-04-20T00:41:14;92585.41;;;11.42;77.15
15568;BME280;7885;42.596;23.044;2023-04-20T00:43:48;92572.25;;;11.37;76.75
15568;BME280;7885;42.596;23.044;2023-04-20T00:49:39;92590.38;;;11.51;77.18
15568;BME280;7885;42.596;23.044;2023-04-20T00:52:06;92588.44;;;11.51;78.72
15568;BME280;7885;42.596;23.044;2023-04-20T00:54:33;92598.13;;;11.52;79.49
15568;BME280;7885;42.596;23.044;2023-04-20T00:57:03;92589.97;;;11.52;79.98
15568;BME280;7885;42.596;23.044;2023-04-20T01:06:14;92581.44;;;11.50;79.75
15568;BME280;7885;42.596;23.044;2023-04-20T01:08:46;92567.16;;;11.39;79.89
15568;BME280;7885;42.596;23.044;2023-04-20T01:11:13;92579.16;;;11.45;80.78
15568;BME280;7885;42.596;23.044;2023-04-20T01:13:41;92580.34;;;11.44;81.01
15568;BME280;7885;42.596;23.044;2023-04-20T01:16:07;92577.63;;;11.44;80.61
15568;BME280;7885;42.596;23.044;2023-04-20T01:18:41;92562.06;;;11.41;80.96
15568;BME280;7885;42.596;23.044;2023-04-20T01:21:08;92571.34;;;11.47;81.01
15568;BME280;7885;42.596;23.044;2023-04-20T01:23:37;92580.69;;;11.46;80.71
15568;BME280;7885;42.596;23.044;2023-04-20T01:26:06;92555.91;;;11.37;81.60
15568;BME280;7885;42.596;23.044;2023-04-20T01:28:32;92550.53;;;11.30;80.85
15568;BME280;7885;42.596;23.044;2023-04-20T01:30:59;92576.19;;;11.33;78.98
15568;BME280;7885;42.596;23.044;2023-04-20T01:33:26;92566.88;;;11.30;79.42
15568;BME280;7885;42.596;23.044;2023-04-20T01:35:53;92577.78;;;11.30;78.67
15568;BME280;7885;42.596;23.044;2023-04-20T01:38:21;92566.50;;;11.28;79.59
15568;BME280;7885;42.596;23.044;2023-04-20T01:40:50;92563.47;;;11.23;78.13
15568;BME280;7885;42.596;23.044;2023-04-20T01:43:19;92573.03;;;11.34;78.32
15568;BME280;7885;42.596;23.044;2023-04-20T01:45:46;92569.94;;;11.36;78.48
15568;BME280;7885;42.596;23.044;2023-04-20T01:48:13;92573.69;;;11.45;77.59
15568;BME280;7885;42.596;23.044;2023-04-20T01:50:40;92565.13;;;11.47;77.16
15568;BME280;7885;42.596;23.044;2023-04-20T01:53:07;92558.16;;;11.42;77.88
15568;BME280;7885;42.596;23.044;2023-04-20T01:55:34;92570.69;;;11.36;77.52
15568;BME280;7885;42.596;23.044;2023-04-20T01:58:02;92572.41;;;11.23;78.14
15568;BME280;7885;42.596;23.044;2023-04-20T02:00:29;92554.63;;;11.11;78.21
15568;BME280;7885;42.596;23.044;2023-04-20T02:02:56;92567.03;;;11.16;78.42
15568;BME280;7885;42.596;23.044;2023-04-20T02:05:23;92551.19;;;11.07;78.12
15568;BME280;7885;42.596;23.044;2023-04-20T02:07:50;92541.44;;;11.10;76.98
15568;BME280;7885;42.596;23.044;2023-04-20T02:10:16;92545.25;;;11.16;76.99
15568;BME280;7885;42.596;23.044;2023-04-20T02:12:43;92550.25;;;11.21;77.25
15568;BME280;7885;42.596;23.044;2023-04-20T02:15:11;92559.63;;;11.20;77.22
15568;BME280;7885;42.596;23.044;2023-04-20T02:17:38;92546.78;;;11.17;77.22
15568;BME280;7885;42.596;23.044;2023-04-20T02:20:07;92547.97;;;11.16;77.21
15568;BME280;7885;42.596;23.044;2023-04-20T02:22:35;92558.38;;;11.25;76.68
15568;BME280;7885;42.596;23.044;2023-04-20T02:25:01;92555.25;;;11.26;77.88
15568;BME280;7885;42.596;23.044;2023-04-20T02:27:29;92546.00;;;11.20;77.02
15568;BME280;7885;42.596;23.044;2023-04-20T02:29:55;92558.41;;;11.21;78.25
15568;BME280;7885;42.596;23.044;2023-04-20T02:32:24;92560.41;;;11.17;78.38
15568;BME280;7885;42.596;23.044;2023-04-20T02:34:50;92563.94;;;11.14;78.07
15568;BME280;7885;42.596;23.044;2023-04-20T02:37:17;92549.38;;;10.94;78.22
15568;BME280;7885;42.596;23.044;2023-04-20T02:39:44;92558.28;;;10.98;78.62
15568;BME280;7885;42.596;23.044;2023-04-20T02:42:11;92555.59;;;10.94;78.28
15568;BME280;7885;42.596;23.044;2023-04-20T02:44:37;92545.56;;;10.88;78.72
15568;BME280;7885;42.596;23.044;2023-04-20T02:47:04;92553.31;;;10.93;78.94
15568;BME280;7885;42.596;23.044;2023-04-20T02:49:32;92552.84;;;10.98;78.06
15568;BME280;7885;42.596;23.044;2023-04-20T02:51:59;92553.19;;;11.00;78.46
15568;BME280;7885;42.596;23.044;2023-04-20T02:54:26;92540.00;;;10.98;78.89
15568;BME280;7885;42.596;23.044;2023-04-20T02:56:53;92547.94;;;10.86;79.02
15568;BME280;7885;42.596;23.044;2023-04-20T02:59:20;92545.38;;;10.68;80.70
15568;BME280;7885;42.596;23.044;2023-04-20T03:01:47;92547.69;;;10.70;79.71
15568;BME280;7885;42.596;23.044;2023-04-20T03:04:13;92549.31;;;10.63;80.48
15568;BME280;7885;42.596;23.044;2023-04-20T03:06:42;92556.56;;;10.77;78.91
15568;BME280;7885;42.596;23.044;2023-04-20T03:09:09;92562.09;;;10.67;79.37
15568;BME280;7885;42.596;23.044;2023-04-20T03:11:36;92556.63;;;10.70;79.11
15568;BME280;7885;42.596;23.044;2023-04-20T03:14:02;92547.31;;;10.68;78.91
15568;BME280;7885;42.596;23.044;2023-04-20T03:16:30;92568.22;;;10.78;79.32
15568;BME280;7885;42.596;23.044;2023-04-20T03:18:57;92560.00;;;10.85;78.80
15568;BME280;7885;42.596;23.044;2023-04-20T03:21:23;92548.72;;;10.83;78.79
15568;BME280;7885;42.596;23.044;2023-04-20T03:23:52;92560.28;;;10.94;78.21
15568;BME280;7885;42.596;23.044;2023-04-20T03:26:18;92559.47;;;10.97;78.07
15568;BME280;7885;42.596;23.044;2023-04-20T03:28:45;92566.09;;;10.96;78.09
15568;BME280;7885;42.596;23.044;2023-04-20T03:31:12;92567.19;;;11.02;77.69
15568;BME280;7885;42.596;23.044;2023-04-20T03:33:39;92567.56;;;11.04;77.48
15568;BME280;7885;42.596;23.044;2023-04-20T03:36:06;92558.28;;;10.98;78.53
15568;BME280;7885;42.596;23.044;2023-04-20T03:38:33;92551.66;;;10.99;79.34
15568;BME280;7885;42.596;23.044;2023-04-20T03:41:01;92567.91;;;11.09;80.20
15568;BME280;7885;42.596;23.044;2023-04-20T03:43:29;92569.81;;;11.12;80.89
15568;BME280;7885;42.596;23.044;2023-04-20T03:45:55;92572.09;;;11.14;80.34
15568;BME280;7885;42.596;23.044;2023-04-20T03:48:22;92567.47;;;11.11;79.25
15568;BME280;7885;42.596;23.044;2023-04-20T03:50:49;92570.94;;;11.15;77.93
15568;BME280;7885;42.596;23.044;2023-04-20T03:53:16;92574.75;;;11.21;77.32
15568;BME280;7885;42.596;23.044;2023-04-20T03:55:42;92566.31;;;11.12;77.57
15568;BME280;7885;42.596;23.044;2023-04-20T03:58:10;92558.59;;;11.03;78.01
15568;BME280;7885;42.596;23.044;2023-04-20T04:00:37;92577.97;;;11.12;78.37
15568;BME280;7885;42.596;23.044;2023-04-20T04:03:04;92566.81;;;11.00;78.69
15568;BME280;7885;42.596;23.044;2023-04-20T04:05:30;92575.00;;;10.96;79.05
15568;BME280;7885;42.596;23.044;2023-04-20T04:07:57;92581.25;;;10.97;79.26
15568;BME280;7885;42.596;23.044;2023-04-20T04:10:24;92571.94;;;10.94;79.48
15568;BME280;7885;42.596;23.044;2023-04-20T04:12:51;92575.13;;;10.89;79.66
15568;BME280;7885;42.596;23.044;2023-04-20T04:15:19;92580.59;;;10.86;79.85
15568;BME280;7885;42.596;23.044;2023-04-20T04:17:46;92567.94;;;10.69;80.32
15568;BME280;7885;42.596;23.044;2023-04-20T04:20:13;92582.25;;;10.73;80.71
15568;BME280;7885;42.596;23.044;2023-04-20T04:22:40;92581.44;;;10.76;80.37
15568;BME280;7885;42.596;23.044;2023-04-20T04:25:08;92574.47;;;10.75;80.25
15568;BME280;7885;42.596;23.044;2023-04-20T04:27:35;92580.59;;;10.86;80.61
15568;BME280;7885;42.596;23.044;2023-04-20T04:30:05;92584.09;;;10.83;80.78
15568;BME280;7885;42.596;23.044;2023-04-20T04:32:33;92572.94;;;10.70;81.47
15568;BME280;7885;42.596;23.044;2023-04-20T04:35:00;92569.16;;;10.60;82.03
15568;BME280;7885;42.596;23.044;2023-04-20T04:37:27;92570.66;;;10.69;82.16
15568;BME280;7885;42.596;23.044;2023-04-20T04:39:54;92580.66;;;10.79;82.31
15568;BME280;7885;42.596;23.044;2023-04-20T04:42:22;92585.25;;;10.85;81.89
15568;BME280;7885;42.596;23.044;2023-04-20T04:44:49;92593.44;;;10.85;82.50
15568;BME280;7885;42.596;23.044;2023-04-20T04:47:16;92591.84;;;10.88;81.02
15568;BME280;7885;42.596;23.044;2023-04-20T04:49:45;92603.09;;;10.90;81.02
15568;BME280;7885;42.596;23.044;2023-04-20T04:52:12;92582.63;;;10.75;81.50
15568;BME280;7885;42.596;23.044;2023-04-20T04:54:39;92603.91;;;10.87;81.41
15568;BME280;7885;42.596;23.044;2023-04-20T04:57:05;92598.44;;;10.87;81.44
15568;BME280;7885;42.596;23.044;2023-04-20T04:59:32;92600.72;;;10.95;82.71
15568;BME280;7885;42.596;23.044;2023-04-20T05:01:59;92591.34;;;10.96;80.84
15568;BME280;7885;42.596;23.044;2023-04-20T05:04:25;92601.78;;;11.05;81.01
15568;BME280;7885;42.596;23.044;2023-04-20T05:06:53;92607.59;;;11.07;81.42
15568;BME280;7885;42.596;23.044;2023-04-20T05:09:20;92610.69;;;11.09;82.03
15568;BME280;7885;42.596;23.044;2023-04-20T05:11:47;92608.31;;;11.11;83.29
15568;BME280;7885;42.596;23.044;2023-04-20T05:14:14;92613.34;;;11.16;82.59
15568;BME280;7885;42.596;23.044;2023-04-20T05:16:40;92604.78;;;11.14;79.89
15568;BME280;7885;42.596;23.044;2023-04-20T05:19:07;92617.59;;;11.17;79.70
15568;BME280;7885;42.596;23.044;2023-04-20T05:21:34;92598.22;;;11.11;77.90
15568;BME280;7885;42.596;23.044;2023-04-20T05:24:04;92598.13;;;11.19;77.71
15568;BME280;7885;42.596;23.044;2023-04-20T05:26:31;92616.63;;;11.34;79.60
15568;BME280;7885;42.596;23.044;2023-04-20T05:28:58;92608.47;;;11.34;79.41
15568;BME280;7885;42.596;23.044;2023-04-20T05:31:24;92608.84;;;11.36;78.16
15568;BME280;7885;42.596;23.044;2023-04-20T05:33:51;92604.25;;;11.30;77.34
15568;BME280;7885;42.596;23.044;2023-04-20T05:36:18;92611.09;;;11.41;78.15
15568;BME280;7885;42.596;23.044;2023-04-20T05:38:45;92614.94;;;11.47;77.67
15568;BME280;7885;42.596;23.044;2023-04-20T05:41:13;92610.25;;;11.51;77.53
15568;BME280;7885;42.596;23.044;2023-04-20T05:43:40;92614.50;;;11.52;76.67
15568;BME280;7885;42.596;23.044;2023-04-20T05:46:07;92617.13;;;11.59;75.42
15568;BME280;7885;42.596;23.044;2023-04-20T05:48:33;92615.50;;;11.65;77.04
15568;BME280;7885;42.596;23.044;2023-04-20T05:51:00;92618.59;;;11.71;75.37
15568;BME280;7885;42.596;23.044;2023-04-20T05:53:27;92621.63;;;11.77;74.93
15568;BME280;7885;42.596;23.044;2023-04-20T05:55:54;92625.91;;;11.78;73.43
15568;BME280;7885;42.596;23.044;2023-04-20T05:58:22;92618.47;;;11.82;72.31
15568;BME280;7885;42.596;23.044;2023-04-20T06:00:49;92627.81;;;11.81;72.26
15568;BME280;7885;42.596;23.044;2023-04-20T06:03:15;92627.38;;;11.86;72.01
15568;BME280;7885;42.596;23.044;2023-04-20T06:05:42;92621.50;;;11.87;72.98
15568;BME280;7885;42.596;23.044;2023-04-20T06:08:09;92624.59;;;11.89;72.79
15568;BME280;7885;42.596;23.044;2023-04-20T06:10:35;92623.81;;;11.89;72.42
15568;BME280;7885;42.596;23.044;2023-04-20T06:13:02;92626.94;;;11.87;72.16
15568;BME280;7885;42.596;23.044;2023-04-20T06:15:30;92624.66;;;11.86;72.25
15568;BME280;7885;42.596;23.044;2023-04-20T06:17:57;92624.66;;;11.86;73.11
15568;BME280;7885;42.596;23.044;2023-04-20T06:20:25;92623.78;;;11.92;73.63
15568;BME280;7885;42.596;23.044;2023-04-20T06:22:52;92620.66;;;11.90;74.11
15568;BME280;7885;42.596;23.044;2023-04-20T06:25:19;92627.63;;;11.95;74.41
15568;BME280;7885;42.596;23.044;2023-04-20T06:27:45;92631.47;;;11.97;74.89
15568;BME280;7885;42.596;23.044;2023-04-20T06:30:13;92627.13;;;12.03;74.54
15568;BME280;7885;42.596;23.044;2023-04-20T06:32:41;92611.22;;;11.98;74.37
15568;BME280;7885;42.596;23.044;2023-04-20T06:35:09;92620.34;;;12.15;73.47
15568;BME280;7885;42.596;23.044;2023-04-20T06:37:35;92629.66;;;12.18;73.18
15568;BME280;7885;42.596;23.044;2023-04-20T06:40:03;92628.03;;;12.24;72.99
15568;BME280;7885;42.596;23.044;2023-04-20T06:42:32;92612.47;;;12.21;72.63
15568;BME280;7885;42.596;23.044;2023-04-20T06:44:59;92633.78;;;12.29;71.59
15568;BME280;7885;42.596;23.044;2023-04-20T06:47:25;92627.44;;;12.09;72.50
15568;BME280;7885;42.596;23.044;2023-04-20T06:49:57;92636.56;;;12.26;71.82
15568;BME280;7885;42.596;23.044;2023-04-20T06:52:24;92637.44;;;12.19;72.26
15568;BME280;7885;42.596;23.044;2023-04-20T06:54:50;92647.53;;;12.22;72.16
15568;BME280;7885;42.596;23.044;2023-04-20T06:57:17;92652.97;;;12.22;73.00
15568;BME280;7885;42.596;23.044;2023-04-20T06:59:44;92653.75;;;12.23;73.45
15568;BME280;7885;42.596;23.044;2023-04-20T07:02:11;92632.91;;;12.09;72.88
15568;BME280;7885;42.596;23.044;2023-04-20T07:04:38;92651.44;;;12.21;73.68
15568;BME280;7885;42.596;23.044;2023-04-20T07:07:06;92649.91;;;12.20;71.75
15568;BME280;7885;42.596;23.044;2023-04-20T07:09:32;92653.03;;;12.19;72.31
15568;BME280;7885;42.596;23.044;2023-04-20T07:11:59;92652.25;;;12.18;72.75
15568;BME280;7885;42.596;23.044;2023-04-20T07:14:27;92650.00;;;12.13;71.78
15568;BME280;7885;42.596;23.044;2023-04-20T07:16:54;92661.72;;;12.10;72.75
15568;BME280;7885;42.596;23.044;2023-04-20T07:19:20;92657.44;;;12.09;74.18
15568;BME280;7885;42.596;23.044;2023-04-20T07:21:47;92660.91;;;12.13;75.10
15568;BME280;7885;42.596;23.044;2023-04-20T07:24:16;92656.19;;;12.13;75.55
15568;BME280;7885;42.596;23.044;2023-04-20T07:26:42;92648.44;;;12.12;75.99
15568;BME280;7885;42.596;23.044;2023-04-20T07:29:09;92654.88;;;12.25;75.73
15568;BME280;7885;42.596;23.044;2023-04-20T07:31:36;92658.34;;;12.29;75.37
15568;BME280;7885;42.596;23.044;2023-04-20T07:34:02;92659.91;;;12.30;75.92
15568;BME280;7885;42.596;23.044;2023-04-20T07:36:29;92658.97;;;12.40;75.74
15568;BME280;7885;42.596;23.044;2023-04-20T07:38:57;92663.19;;;12.45;75.10
15568;BME280;7885;42.596;23.044;2023-04-20T07:41:25;92656.09;;;12.51;74.32
15568;BME280;7885;42.596;23.044;2023-04-20T07:43:51;92669.25;;;12.56;74.00
15568;BME280;7885;42.596;23.044;2023-04-20T07:46:19;92642.94;;;12.42;73.39
15568;BME280;7885;42.596;23.044;2023-04-20T07:48:46;92663.44;;;12.54;73.34
15568;BME280;7885;42.596;23.044;2023-04-20T07:51:22;92662.53;;;12.64;73.67
15568;BME280;7885;42.596;23.044;2023-04-20T07:53:49;92676.63;;;12.59;72.24
15568;BME280;7885;42.596;23.044;2023-04-20T07:56:15;92677.53;;;12.49;72.33
15568;BME280;7885;42.596;23.044;2023-04-20T07:58:43;92668.59;;;12.48;73.02
15568;BME280;7885;42.596;23.044;2023-04-20T08:01:10;92673.63;;;12.50;71.70
15568;BME280;7885;42.596;23.044;2023-04-20T08:03:37;92668.97;;;12.50;71.94
15568;BME280;7885;42.596;23.044;2023-04-20T08:06:04;92668.19;;;12.50;72.12
15568;BME280;7885;42.596;23.044;2023-04-20T08:08:31;92672.41;;;12.54;71.18
15568;BME280;7885;42.596;23.044;2023-04-20T08:10:57;92659.59;;;12.51;71.35
15568;BME280;7885;42.596;23.044;2023-04-20T08:13:24;92664.94;;;12.58;70.82
15568;BME280;7885;42.596;23.044;2023-04-20T08:15:53;92665.59;;;12.66;71.06
15568;BME280;7885;42.596;23.044;2023-04-20T08:18:20;92662.19;;;12.58;70.60
15568;BME280;7885;42.596;23.044;2023-04-20T08:20:46;92660.50;;;12.68;70.63
15568;BME280;7885;42.596;23.044;2023-04-20T08:23:15;92659.25;;;12.73;70.70
15568;BME280;7885;42.596;23.044;2023-04-20T08:25:43;92668.44;;;12.86;70.43
15568;BME280;7885;42.596;23.044;2023-04-20T08:28:10;92658.13;;;12.93;70.55
15568;BME280;7885;42.596;23.044;2023-04-20T08:30:39;92655.72;;;12.99;71.11
15568;BME280;7885;42.596;23.044;2023-04-20T08:33:07;92657.91;;;13.07;71.38
15568;BME280;7885;42.596;23.044;2023-04-20T08:35:34;92649.69;;;13.11;71.03
15568;BME280;7885;42.596;23.044;2023-04-20T08:38:01;92663.59;;;13.20;70.17
15568;BME280;7885;42.596;23.044;2023-04-20T08:40:29;92662.38;;;13.21;70.07
15568;BME280;7885;42.596;23.044;2023-04-20T08:42:55;92650.59;;;13.01;69.16
15568;BME280;7885;42.596;23.044;2023-04-20T08:45:24;92667.28;;;13.10;69.03
15568;BME280;7885;42.596;23.044;2023-04-20T08:47:51;92663.34;;;13.11;69.59
15568;BME280;7885;42.596;23.044;2023-04-20T08:50:19;92661.19;;;12.99;69.62
15568;BME280;7885;42.596;23.044;2023-04-20T08:52:46;92664.38;;;12.94;69.70
15568;BME280;7885;42.596;23.044;2023-04-20T08:55:14;92655.28;;;12.77;69.35
15568;BME280;7885;42.596;23.044;2023-04-20T08:57:41;92659.88;;;12.84;70.33
15568;BME280;7885;42.596;23.044;2023-04-20T09:00:08;92638.63;;;12.72;69.93
15568;BME280;7885;42.596;23.044;2023-04-20T09:02:35;92655.84;;;12.92;70.58
15568;BME280;7885;42.596;23.044;2023-04-20T09:05:03;92658.56;;;12.92;70.99
15568;BME280;7885;42.596;23.044;2023-04-20T09:07:32;92665.09;;;12.98;72.53
15568;BME280;7885;42.596;23.044;2023-04-20T09:09:59;92658.97;;;12.90;70.88
15568;BME280;7885;42.596;23.044;2023-04-20T09:12:27;92667.06;;;12.97;71.79
15568;BME280;7885;42.596;23.044;2023-04-20T09:14:53;92666.53;;;13.06;71.14
15568;BME280;7885;42.596;23.044;2023-04-20T09:17:31;92664.34;;;13.21;69.60
15568;BME280;7885;42.596;23.044;2023-04-20T09:19:58;92649.44;;;13.25;69.00
15568;BME280;7885;42.596;23.044;2023-04-20T09:22:29;92662.78;;;13.43;68.52
15568;BME280;7885;42.596;23.044;2023-04-20T09:24:58;92653.97;;;13.55;67.60
15568;BME280;7885;42.596;23.044;2023-04-20T09:27:24;92647.81;;;13.71;68.19
15568;BME280;7885;42.596;23.044;2023-04-20T09:29:57;92653.66;;;13.92;66.64
15568;BME280;7885;42.596;23.044;2023-04-20T09:32:26;92635.88;;;14.00;66.24
15568;BME280;7885;42.596;23.044;2023-04-20T09:34:54;92652.16;;;14.27;65.94
15568;BME280;7885;42.596;23.044;2023-04-20T09:37:21;92659.41;;;14.37;66.43
15568;BME280;7885;42.596;23.044;2023-04-20T09:39:49;92648.91;;;14.32;66.80
15568;BME280;7885;42.596;23.044;2023-04-20T09:42:17;92647.00;;;14.29;67.27
15568;BME280;7885;42.596;23.044;2023-04-20T09:44:44;92650.59;;;14.26;66.54
15568;BME280;7885;42.596;23.044;2023-04-20T09:47:15;92656.50;;;14.25;66.94
15568;BME280;7885;42.596;23.044;2023-04-20T09:49:43;92646.94;;;14.33;67.38
15568;BME280;7885;42.596;23.044;2023-04-20T09:52:10;92621.19;;;14.30;66.58
15568;BME280;7885;42.596;23.044;2023-04-20T09:54:39;92648.16;;;14.68;65.74
15568;BME280;7885;42.596;23.044;2023-04-20T09:57:05;92647.03;;;14.81;64.87
15568;BME280;7885;42.596;23.044;2023-04-20T09:59:34;92642.19;;;14.89;64.17
15568;BME280;7885;42.596;23.044;2023-04-20T10:02:01;92646.97;;;14.85;63.51
15568;BME280;7885;42.596;23.044;2023-04-20T10:04:33;92643.69;;;14.74;63.83
15568;BME280;7885;42.596;23.044;2023-04-20T10:06:59;92643.31;;;14.55;65.35
15568;BME280;7885;42.596;23.044;2023-04-20T10:09:31;92650.88;;;14.68;64.95
15568;BME280;7885;42.596;23.044;2023-04-20T10:12:04;92643.44;;;14.84;64.77
15568;BME280;7885;42.596;23.044;2023-04-20T10:14:31;92611.00;;;14.99;64.55
15568;BME280;7885;42.596;23.044;2023-04-20T10:17:00;92625.41;;;15.48;64.47
15568;BME280;7885;42.596;23.044;2023-04-20T10:19:38;92633.41;;;16.00;63.02
15568;BME280;7885;42.596;23.044;2023-04-20T10:22:07;92634.03;;;16.33;61.33
15568;BME280;7885;42.596;23.044;2023-04-20T10:24:35;92626.22;;;16.31;58.69
15568;BME280;7885;42.596;23.044;2023-04-20T10:27:02;92611.03;;;16.14;58.73
15568;BME280;7885;42.596;23.044;2023-04-20T10:29:30;92634.06;;;15.91;59.45
15568;BME280;7885;42.596;23.044;2023-04-20T10:31:56;92610.41;;;15.52;59.97
15568;BME280;7885;42.596;23.044;2023-04-20T10:34:31;92633.53;;;15.68;60.07
15568;BME280;7885;42.596;23.044;2023-04-20T10:37:08;92631.00;;;15.44;60.17
15568;BME280;7885;42.596;23.044;2023-04-20T10:39:35;92626.78;;;15.56;61.25
15568;BME280;7885;42.596;23.044;2023-04-20T10:42:03;92601.88;;;15.50;60.37
15568;BME280;7885;42.596;23.044;2023-04-20T10:44:30;92628.38;;;15.70;60.25
15568;BME280;7885;42.596;23.044;2023-04-20T10:46:58;92622.06;;;15.85;60.07
15568;BME280;7885;42.596;23.044;2023-04-20T10:49:25;92622.06;;;15.56;59.67
15568;BME280;7885;42.596;23.044;2023-04-20T10:51:55;92615.25;;;15.32;60.69
15568;BME280;7885;42.596;23.044;2023-04-20T10:54:22;92615.97;;;15.20;61.66
15568;BME280;7885;42.596;23.044;2023-04-20T10:56:49;92624.28;;;15.16;62.81
15568;BME280;7885;42.596;23.044;2023-04-20T10:59:18;92620.94;;;15.09;63.08
15568;BME280;7885;42.596;23.044;2023-04-20T11:01:46;92620.00;;;14.99;62.77
15568;BME280;7885;42.596;23.044;2023-04-20T11:04:13;92613.75;;;14.99;62.83
15568;BME280;7885;42.596;23.044;2023-04-20T11:06:41;92622.47;;;15.10;63.81
15568;BME280;7885;42.596;23.044;2023-04-20T11:09:17;92619.03;;;14.90;61.91
15568;BME280;7885;42.596;23.044;2023-04-20T11:11:44;92617.25;;;14.83;62.58
15568;BME280;7885;42.596;23.044;2023-04-20T11:14:11;92598.31;;;14.73;62.33
15568;BME280;7885;42.596;23.044;2023-04-20T11:16:39;92610.81;;;14.74;61.73
15568;BME280;7885;42.596;23.044;2023-04-20T11:19:05;92614.94;;;14.98;61.44
15568;BME280;7885;42.596;23.044;2023-04-20T11:21:36;92617.41;;;15.08;60.95
15568;BME280;7885;42.596;23.044;2023-04-20T11:24:04;92617.47;;;15.21;61.07
15568;BME280;7885;42.596;23.044;2023-04-20T11:26:36;92620.56;;;15.23;61.21
15568;BME280;7885;42.596;23.044;2023-04-20T11:29:04;92616.28;;;15.22;60.61
15568;BME280;7885;42.596;23.044;2023-04-20T11:31:31;92614.06;;;15.17;61.03
15568;BME280;7885;42.596;23.044;2023-04-20T11:33:59;92602.94;;;15.08;62.52
15568;BME280;7885;42.596;23.044;2023-04-20T11:36:27;92605.56;;;15.28;61.46
15568;BME280;7885;42.596;23.044;2023-04-20T11:38:54;92608.38;;;15.40;60.78
15568;BME280;7885;42.596;23.044;2023-04-20T11:41:21;92608.34;;;15.56;59.47
15568;BME280;7885;42.596;23.044;2023-04-20T11:43:49;92605.63;;;15.85;58.55
15568;BME280;7885;42.596;23.044;2023-04-20T11:46:17;92609.72;;;16.06;58.82
15568;BME280;7885;42.596;23.044;2023-04-20T11:48:45;92603.81;;;16.20;57.91
15568;BME280;7885;42.596;23.044;2023-04-20T11:51:12;92576.59;;;16.13;57.26
15568;BME280;7885;42.596;23.044;2023-04-20T11:53:39;92595.91;;;16.35;56.02
15568;BME280;7885;42.596;23.044;2023-04-20T11:56:06;92597.69;;;16.41;55.74
15568;BME280;7885;42.596;23.044;2023-04-20T11:58:33;92591.09;;;16.51;55.98
15568;BME280;7885;42.596;23.044;2023-04-20T12:01:02;92592.88;;;16.71;56.61
15568;BME280;7885;42.596;23.044;2023-04-20T12:03:29;92588.84;;;16.75;55.50
15568;BME280;7885;42.596;23.044;2023-04-20T12:05:57;92596.06;;;16.82;55.92
15568;BME280;7885;42.596;23.044;2023-04-20T12:08:24;92611.19;;;16.48;61.77
15568;BME280;7885;42.596;23.044;2023-04-20T12:10:50;92611.00;;;15.89;67.61
15568;BME280;7885;42.596;23.044;2023-04-20T12:13:17;92623.38;;;15.36;69.08
15568;BME280;7885;42.596;23.044;2023-04-20T12:15:44;92618.69;;;15.04;72.64
15568;BME280;7885;42.596;23.044;2023-04-20T12:18:12;92627.59;;;14.76;73.68
15568;BME280;7885;42.596;23.044;2023-04-20T12:20:39;92618.59;;;14.59;73.54
15568;BME280;7885;42.596;23.044;2023-04-20T12:23:05;92613.13;;;14.23;74.60
15568;BME280;7885;42.596;23.044;2023-04-20T12:28:54;92583.28;;;13.14;74.98
15568;BME280;7885;42.596;23.044;2023-04-20T12:31:21;92593.38;;;12.71;80.18
15568;BME280;7885;42.596;23.044;2023-04-20T12:33:50;92567.19;;;12.27;85.88
15568;BME280;7885;42.596;23.044;2023-04-20T12:36:17;92575.38;;;11.96;88.57
15568;BME280;7885;42.596;23.044;2023-04-20T12:38:43;92574.00;;;11.85;90.32
15568;BME280;7885;42.596;23.044;2023-04-20T12:41:12;92554.59;;;11.79;90.83
15568;BME280;7885;42.596;23.044;2023-04-20T12:43:39;92555.41;;;11.76;89.27
15568;BME280;7885;42.596;23.044;2023-04-20T12:46:06;92559.50;;;11.91;89.88
15568;BME280;7885;42.596;23.044;2023-04-20T12:48:32;92551.06;;;12.09;88.67
15568;BME280;7885;42.596;23.044;2023-04-20T12:51:01;92554.00;;;12.22;88.00
15568;BME280;7885;42.596;23.044;2023-04-20T12:53:27;92552.38;;;12.24;87.56
15568;BME280;7885;42.596;23.044;2023-04-20T12:55:54;92546.94;;;12.24;87.99
15568;BME280;7885;42.596;23.044;2023-04-20T12:58:21;92538.22;;;12.33;87.71
15568;BME280;7885;42.596;23.044;2023-04-20T13:00:48;92547.31;;;12.49;87.82
15568;BME280;7885;42.596;23.044;2023-04-20T13:03:14;92541.34;;;12.58;86.37
15568;BME280;7885;42.596;23.044;2023-04-20T13:05:41;92540.44;;;12.64;87.29
15568;BME280;7885;42.596;23.044;2023-04-20T13:08:10;92543.06;;;12.72;89.61
15568;BME280;7885;42.596;23.044;2023-04-20T13:10:38;92541.38;;;12.78;88.85
15568;BME280;7885;42.596;23.044;2023-04-20T13:13:06;92535.41;;;12.83;89.93
15568;BME280;7885;42.596;23.044;2023-04-20T13:15:33;92529.75;;;12.74;90.81